sensor_id;sensor_type;location;lat;lon;timestamp;P1;durP1;ratioP1;P2;durP2;ratioP2
57832;SDS011;43667;53.036;6.740;2022-07-23T00:01:07;3.67;;;1.58;;
57832;SDS011;43667;53.036;6.740;2022-07-23T00:03:32;4.10;;;1.80;;
57832;SDS011;43667;53.036;6.740;2022-07-23T00:05:58;6.70;;;1.70;;
57832;SDS011;43667;53.036;6.740;2022-07-23T00:08:23;3.58;;;1.70;;
57832;SDS011;43667;53.036;6.740;2022-07-23T00:10:49;4.47;;;1.88;;
57832;SDS011;43667;53.036;6.740;2022-07-23T00:13:15;3.38;;;1.52;;
57832;SDS011;43667;53.036;6.740;2022-07-23T00:15:40;8.65;;;2.08;;
57832;SDS011;43667;53.036;6.740;2022-07-23T00:18:06;4.90;;;1.60;;
57832;SDS011;43667;53.036;6.740;2022-07-23T00:20:31;4.93;;;1.50;;
57832;SDS011;43667;53.036;6.740;2022-07-23T00:22:57;6.13;;;1.70;;
57832;SDS011;43667;53.036;6.740;2022-07-23T00:25:23;4.50;;;1.65;;
57832;SDS011;43667;53.036;6.740;2022-07-23T00:27:50;3.95;;;1.50;;
57832;SDS011;43667;53.036;6.740;2022-07-23T00:30:15;3.70;;;1.60;;
57832;SDS011;43667;53.036;6.740;2022-07-23T00:32:44;5.43;;;1.70;;
57832;SDS011;43667;53.036;6.740;2022-07-23T00:35:15;9.35;;;2.78;;
57832;SDS011;43667;53.036;6.740;2022-07-23T00:37:41;3.53;;;1.40;;
57832;SDS011;43667;53.036;6.740;2022-07-23T00:40:07;4.75;;;2.00;;
57832;SDS011;43667;53.036;6.740;2022-07-23T00:42:34;7.15;;;2.78;;
57832;SDS011;43667;53.036;6.740;2022-07-23T00:44:59;4.18;;;2.00;;
57832;SDS011;43667;53.036;6.740;2022-07-23T00:47:25;4.72;;;1.90;;
57832;SDS011;43667;53.036;6.740;2022-07-23T00:49:51;7.07;;;2.17;;
57832;SDS011;43667;53.036;6.740;2022-07-23T00:52:16;5.47;;;2.30;;
57832;SDS011;43667;53.036;6.740;2022-07-23T00:54:42;3.90;;;2.10;;
57832;SDS011;43667;53.036;6.740;2022-07-23T00:57:08;7.25;;;2.42;;
57832;SDS011;43667;53.036;6.740;2022-07-23T00:59:34;4.18;;;2.10;;
57832;SDS011;43667;53.036;6.740;2022-07-23T01:02:00;4.75;;;2.40;;
57832;SDS011;43667;53.036;6.740;2022-07-23T01:04:25;4.22;;;2.22;;
57832;SDS011;43667;53.036;6.740;2022-07-23T01:06:51;9.95;;;2.60;;
57832;SDS011;43667;53.036;6.740;2022-07-23T01:09:17;4.35;;;1.80;;
57832;SDS011;43667;53.036;6.740;2022-07-23T01:11:43;8.73;;;2.30;;
57832;SDS011;43667;53.036;6.740;2022-07-23T01:14:09;6.05;;;2.60;;
57832;SDS011;43667;53.036;6.740;2022-07-23T01:16:40;3.72;;;1.90;;
57832;SDS011;43667;53.036;6.740;2022-07-23T01:19:07;5.00;;;2.42;;
57832;SDS011;43667;53.036;6.740;2022-07-23T01:21:34;5.88;;;2.22;;
57832;SDS011;43667;53.036;6.740;2022-07-23T01:24:02;5.55;;;2.35;;
57832;SDS011;43667;53.036;6.740;2022-07-23T01:26:27;3.55;;;2.40;;
57832;SDS011;43667;53.036;6.740;2022-07-23T01:28:53;7.35;;;3.22;;
57832;SDS011;43667;53.036;6.740;2022-07-23T01:31:18;7.82;;;3.70;;
57832;SDS011;43667;53.036;6.740;2022-07-23T01:33:44;8.48;;;3.58;;
57832;SDS011;43667;53.036;6.740;2022-07-23T01:36:10;5.78;;;3.42;;
57832;SDS011;43667;53.036;6.740;2022-07-23T01:38:36;5.25;;;3.20;;
57832;SDS011;43667;53.036;6.740;2022-07-23T01:41:02;7.32;;;3.45;;
57832;SDS011;43667;53.036;6.740;2022-07-23T01:43:27;5.43;;;3.33;;
57832;SDS011;43667;53.036;6.740;2022-07-23T01:45:53;9.98;;;3.63;;
57832;SDS011;43667;53.036;6.740;2022-07-23T01:48:19;6.82;;;3.55;;
57832;SDS011;43667;53.036;6.740;2022-07-23T01:50:46;5.28;;;3.08;;
57832;SDS011;43667;53.036;6.740;2022-07-23T01:53:12;5.78;;;3.40;;
57832;SDS011;43667;53.036;6.740;2022-07-23T01:55:38;8.35;;;3.63;;
57832;SDS011;43667;53.036;6.740;2022-07-23T01:58:04;6.80;;;3.45;;
57832;SDS011;43667;53.036;6.740;2022-07-23T02:00:30;5.15;;;2.80;;
57832;SDS011;43667;53.036;6.740;2022-07-23T02:02:56;4.90;;;3.40;;
57832;SDS011;43667;53.036;6.740;2022-07-23T02:05:23;4.38;;;3.40;;
57832;SDS011;43667;53.036;6.740;2022-07-23T02:07:54;6.72;;;3.08;;
57832;SDS011;43667;53.036;6.740;2022-07-23T02:10:20;4.47;;;2.78;;
57832;SDS011;43667;53.036;6.740;2022-07-23T02:12:46;5.88;;;3.40;;
57832;SDS011;43667;53.036;6.740;2022-07-23T02:15:11;6.40;;;2.78;;
57832;SDS011;43667;53.036;6.740;2022-07-23T02:17:37;4.55;;;3.20;;
57832;SDS011;43667;53.036;6.740;2022-07-23T02:20:03;5.15;;;3.45;;
57832;SDS011;43667;53.036;6.740;2022-07-23T02:22:30;7.53;;;3.08;;
57832;SDS011;43667;53.036;6.740;2022-07-23T02:24:56;4.43;;;3.30;;
57832;SDS011;43667;53.036;6.740;2022-07-23T02:27:21;7.25;;;3.85;;
57832;SDS011;43667;53.036;6.740;2022-07-23T02:29:48;6.32;;;4.18;;
57832;SDS011;43667;53.036;6.740;2022-07-23T02:32:14;5.15;;;3.47;;
57832;SDS011;43667;53.036;6.740;2022-07-23T02:34:39;8.13;;;3.90;;
57832;SDS011;43667;53.036;6.740;2022-07-23T02:37:05;4.70;;;3.88;;
57832;SDS011;43667;53.036;6.740;2022-07-23T02:39:31;4.70;;;3.58;;
57832;SDS011;43667;53.036;6.740;2022-07-23T02:41:56;6.43;;;4.20;;
57832;SDS011;43667;53.036;6.740;2022-07-23T02:44:22;6.28;;;4.38;;
57832;SDS011;43667;53.036;6.740;2022-07-23T02:46:47;5.93;;;4.55;;
57832;SDS011;43667;53.036;6.740;2022-07-23T02:49:13;6.88;;;3.90;;
57832;SDS011;43667;53.036;6.740;2022-07-23T02:51:38;8.18;;;5.57;;
57832;SDS011;43667;53.036;6.740;2022-07-23T02:54:04;7.97;;;4.70;;
57832;SDS011;43667;53.036;6.740;2022-07-23T02:56:30;5.93;;;4.43;;
57832;SDS011;43667;53.036;6.740;2022-07-23T02:58:55;7.45;;;4.40;;
57832;SDS011;43667;53.036;6.740;2022-07-23T03:01:21;5.63;;;4.32;;
57832;SDS011;43667;53.036;6.740;2022-07-23T03:03:46;6.53;;;3.83;;
57832;SDS011;43667;53.036;6.740;2022-07-23T03:06:12;4.80;;;4.30;;
57832;SDS011;43667;53.036;6.740;2022-07-23T03:08:38;6.93;;;4.20;;
57832;SDS011;43667;53.036;6.740;2022-07-23T03:11:04;6.68;;;4.20;;
57832;SDS011;43667;53.036;6.740;2022-07-23T03:13:32;5.10;;;4.30;;
57832;SDS011;43667;53.036;6.740;2022-07-23T03:15:58;6.10;;;3.92;;
57832;SDS011;43667;53.036;6.740;2022-07-23T03:18:23;6.38;;;4.45;;
57832;SDS011;43667;53.036;6.740;2022-07-23T03:20:49;7.22;;;3.50;;
57832;SDS011;43667;53.036;6.740;2022-07-23T03:23:15;5.50;;;4.18;;
57832;SDS011;43667;53.036;6.740;2022-07-23T03:25:41;5.07;;;4.35;;
57832;SDS011;43667;53.036;6.740;2022-07-23T03:28:07;4.75;;;2.50;;
57832;SDS011;43667;53.036;6.740;2022-07-23T03:30:32;2.50;;;2.30;;
57832;SDS011;43667;53.036;6.740;2022-07-23T03:32:58;3.33;;;2.63;;
57832;SDS011;43667;53.036;6.740;2022-07-23T03:35:23;3.22;;;2.90;;
57832;SDS011;43667;53.036;6.740;2022-07-23T03:37:49;4.63;;;3.53;;
57832;SDS011;43667;53.036;6.740;2022-07-23T03:40:15;5.90;;;2.45;;
57832;SDS011;43667;53.036;6.740;2022-07-23T03:42:40;3.47;;;3.10;;
57832;SDS011;43667;53.036;6.740;2022-07-23T03:45:07;3.88;;;3.38;;
57832;SDS011;43667;53.036;6.740;2022-07-23T03:47:33;7.82;;;3.03;;
57832;SDS011;43667;53.036;6.740;2022-07-23T03:49:58;4.18;;;2.72;;
57832;SDS011;43667;53.036;6.740;2022-07-23T03:52:24;9.35;;;2.50;;
57832;SDS011;43667;53.036;6.740;2022-07-23T03:54:49;4.30;;;3.08;;
57832;SDS011;43667;53.036;6.740;2022-07-23T03:57:15;7.35;;;3.35;;
57832;SDS011;43667;53.036;6.740;2022-07-23T03:59:40;8.90;;;3.58;;
57832;SDS011;43667;53.036;6.740;2022-07-23T04:02:06;6.20;;;3.63;;
57832;SDS011;43667;53.036;6.740;2022-07-23T04:04:32;5.63;;;3.58;;
57832;SDS011;43667;53.036;6.740;2022-07-23T04:06:58;9.48;;;3.42;;
57832;SDS011;43667;53.036;6.740;2022-07-23T04:09:23;4.88;;;3.30;;
57832;SDS011;43667;53.036;6.740;2022-07-23T04:11:49;4.60;;;3.28;;
57832;SDS011;43667;53.036;6.740;2022-07-23T04:14:14;6.40;;;3.20;;
57832;SDS011;43667;53.036;6.740;2022-07-23T04:16:40;5.75;;;3.10;;
57832;SDS011;43667;53.036;6.740;2022-07-23T04:19:05;4.65;;;3.53;;
57832;SDS011;43667;53.036;6.740;2022-07-23T04:21:31;5.30;;;3.75;;
57832;SDS011;43667;53.036;6.740;2022-07-23T04:23:57;4.25;;;3.80;;
57832;SDS011;43667;53.036;6.740;2022-07-23T04:26:22;5.15;;;3.38;;
57832;SDS011;43667;53.036;6.740;2022-07-23T04:28:48;12.57;;;6.20;;
57832;SDS011;43667;53.036;6.740;2022-07-23T04:31:13;7.43;;;4.65;;
57832;SDS011;43667;53.036;6.740;2022-07-23T04:33:39;7.70;;;5.95;;
57832;SDS011;43667;53.036;6.740;2022-07-23T04:36:05;8.20;;;5.72;;
57832;SDS011;43667;53.036;6.740;2022-07-23T04:38:31;8.02;;;6.47;;
57832;SDS011;43667;53.036;6.740;2022-07-23T04:40:57;7.45;;;5.65;;
57832;SDS011;43667;53.036;6.740;2022-07-23T04:43:23;6.80;;;4.95;;
57832;SDS011;43667;53.036;6.740;2022-07-23T04:45:49;7.40;;;5.88;;
57832;SDS011;43667;53.036;6.740;2022-07-23T04:48:14;8.80;;;5.60;;
57832;SDS011;43667;53.036;6.740;2022-07-23T04:50:40;7.00;;;5.15;;
57832;SDS011;43667;53.036;6.740;2022-07-23T04:53:07;6.40;;;5.00;;
57832;SDS011;43667;53.036;6.740;2022-07-23T04:55:33;6.57;;;5.13;;
57832;SDS011;43667;53.036;6.740;2022-07-23T04:57:58;5.32;;;4.78;;
57832;SDS011;43667;53.036;6.740;2022-07-23T05:00:24;7.22;;;4.63;;
57832;SDS011;43667;53.036;6.740;2022-07-23T05:02:50;10.10;;;5.35;;
57832;SDS011;43667;53.036;6.740;2022-07-23T05:05:15;6.40;;;4.80;;
57832;SDS011;43667;53.036;6.740;2022-07-23T05:07:41;7.25;;;5.60;;
57832;SDS011;43667;53.036;6.740;2022-07-23T05:10:06;6.38;;;4.68;;
57832;SDS011;43667;53.036;6.740;2022-07-23T05:12:32;7.03;;;4.32;;
57832;SDS011;43667;53.036;6.740;2022-07-23T05:14:58;8.40;;;4.38;;
57832;SDS011;43667;53.036;6.740;2022-07-23T05:17:23;6.80;;;4.60;;
57832;SDS011;43667;53.036;6.740;2022-07-23T05:19:49;4.78;;;4.22;;
57832;SDS011;43667;53.036;6.740;2022-07-23T05:22:15;5.18;;;3.60;;
57832;SDS011;43667;53.036;6.740;2022-07-23T05:24:40;6.78;;;4.18;;
57832;SDS011;43667;53.036;6.740;2022-07-23T05:27:06;4.47;;;3.70;;
57832;SDS011;43667;53.036;6.740;2022-07-23T05:29:31;5.05;;;3.28;;
57832;SDS011;43667;53.036;6.740;2022-07-23T05:31:57;9.25;;;3.85;;
57832;SDS011;43667;53.036;6.740;2022-07-23T05:34:22;6.78;;;3.53;;
57832;SDS011;43667;53.036;6.740;2022-07-23T05:36:48;5.30;;;3.50;;
57832;SDS011;43667;53.036;6.740;2022-07-23T05:39:14;4.95;;;3.38;;
57832;SDS011;43667;53.036;6.740;2022-07-23T05:41:39;6.47;;;3.00;;
57832;SDS011;43667;53.036;6.740;2022-07-23T05:44:05;6.22;;;3.17;;
57832;SDS011;43667;53.036;6.740;2022-07-23T05:46:30;4.70;;;3.28;;
57832;SDS011;43667;53.036;6.740;2022-07-23T05:48:56;5.80;;;3.08;;
57832;SDS011;43667;53.036;6.740;2022-07-23T05:51:25;6.95;;;3.63;;
57832;SDS011;43667;53.036;6.740;2022-07-23T05:53:51;5.38;;;3.13;;
57832;SDS011;43667;53.036;6.740;2022-07-23T05:56:17;3.80;;;2.65;;
57832;SDS011;43667;53.036;6.740;2022-07-23T05:58:43;4.68;;;3.10;;
57832;SDS011;43667;53.036;6.740;2022-07-23T06:01:09;5.28;;;2.50;;
57832;SDS011;43667;53.036;6.740;2022-07-23T06:03:37;3.30;;;2.70;;
57832;SDS011;43667;53.036;6.740;2022-07-23T06:06:03;4.40;;;2.38;;
57832;SDS011;43667;53.036;6.740;2022-07-23T06:08:29;3.75;;;2.30;;
57832;SDS011;43667;53.036;6.740;2022-07-23T06:10:55;3.85;;;2.10;;
57832;SDS011;43667;53.036;6.740;2022-07-23T06:13:21;3.92;;;2.10;;
57832;SDS011;43667;53.036;6.740;2022-07-23T06:15:46;5.93;;;2.35;;
57832;SDS011;43667;53.036;6.740;2022-07-23T06:18:12;3.65;;;2.03;;
57832;SDS011;43667;53.036;6.740;2022-07-23T06:20:37;3.63;;;2.13;;
57832;SDS011;43667;53.036;6.740;2022-07-23T06:23:03;2.53;;;1.67;;
57832;SDS011;43667;53.036;6.740;2022-07-23T06:25:29;4.82;;;1.92;;
57832;SDS011;43667;53.036;6.740;2022-07-23T06:27:55;6.93;;;1.80;;
57832;SDS011;43667;53.036;6.740;2022-07-23T06:30:20;4.20;;;1.38;;
57832;SDS011;43667;53.036;6.740;2022-07-23T06:32:46;6.05;;;1.55;;
57832;SDS011;43667;53.036;6.740;2022-07-23T06:35:12;2.95;;;1.17;;
57832;SDS011;43667;53.036;6.740;2022-07-23T06:37:38;1.60;;;1.20;;
57832;SDS011;43667;53.036;6.740;2022-07-23T06:40:04;6.13;;;1.70;;
57832;SDS011;43667;53.036;6.740;2022-07-23T06:42:30;2.88;;;1.13;;
57832;SDS011;43667;53.036;6.740;2022-07-23T06:44:56;3.70;;;1.17;;
57832;SDS011;43667;53.036;6.740;2022-07-23T06:47:21;1.55;;;0.93;;
57832;SDS011;43667;53.036;6.740;2022-07-23T06:49:47;3.17;;;1.17;;
57832;SDS011;43667;53.036;6.740;2022-07-23T06:52:12;5.13;;;1.23;;
57832;SDS011;43667;53.036;6.740;2022-07-23T06:54:38;3.75;;;1.02;;
57832;SDS011;43667;53.036;6.740;2022-07-23T06:57:04;2.13;;;0.70;;
57832;SDS011;43667;53.036;6.740;2022-07-23T06:59:29;2.95;;;0.90;;
57832;SDS011;43667;53.036;6.740;2022-07-23T07:01:55;3.53;;;0.95;;
57832;SDS011;43667;53.036;6.740;2022-07-23T07:04:21;2.72;;;0.60;;
57832;SDS011;43667;53.036;6.740;2022-07-23T07:06:47;2.55;;;0.50;;
57832;SDS011;43667;53.036;6.740;2022-07-23T07:09:12;2.53;;;0.55;;
57832;SDS011;43667;53.036;6.740;2022-07-23T07:11:38;3.13;;;0.80;;
57832;SDS011;43667;53.036;6.740;2022-07-23T07:14:04;1.05;;;0.50;;
57832;SDS011;43667;53.036;6.740;2022-07-23T07:16:29;1.67;;;0.45;;
57832;SDS011;43667;53.036;6.740;2022-07-23T07:18:55;2.40;;;0.50;;
57832;SDS011;43667;53.036;6.740;2022-07-23T07:21:21;2.33;;;0.32;;
57832;SDS011;43667;53.036;6.740;2022-07-23T07:23:46;4.45;;;0.45;;
57832;SDS011;43667;53.036;6.740;2022-07-23T07:26:12;0.93;;;0.40;;
57832;SDS011;43667;53.036;6.740;2022-07-23T07:28:37;2.08;;;0.50;;
57832;SDS011;43667;53.036;6.740;2022-07-23T07:31:03;4.00;;;0.35;;
57832;SDS011;43667;53.036;6.740;2022-07-23T07:33:29;2.50;;;0.50;;
57832;SDS011;43667;53.036;6.740;2022-07-23T07:35:54;3.38;;;0.65;;
57832;SDS011;43667;53.036;6.740;2022-07-23T07:38:20;1.20;;;0.45;;
57832;SDS011;43667;53.036;6.740;2022-07-23T07:40:46;3.15;;;0.40;;
57832;SDS011;43667;53.036;6.740;2022-07-23T07:43:11;5.70;;;0.40;;
57832;SDS011;43667;53.036;6.740;2022-07-23T07:45:37;4.45;;;0.50;;
57832;SDS011;43667;53.036;6.740;2022-07-23T07:48:03;2.85;;;0.28;;
57832;SDS011;43667;53.036;6.740;2022-07-23T07:50:29;3.28;;;0.40;;
57832;SDS011;43667;53.036;6.740;2022-07-23T07:52:54;1.38;;;0.20;;
57832;SDS011;43667;53.036;6.740;2022-07-23T07:55:20;1.38;;;0.17;;
57832;SDS011;43667;53.036;6.740;2022-07-23T07:57:46;1.45;;;0.20;;
57832;SDS011;43667;53.036;6.740;2022-07-23T08:00:11;2.63;;;0.28;;
57832;SDS011;43667;53.036;6.740;2022-07-23T08:02:48;3.53;;;0.20;;
57832;SDS011;43667;53.036;6.740;2022-07-23T08:05:18;2.20;;;0.30;;
57832;SDS011;43667;53.036;6.740;2022-07-23T08:07:55;1.58;;;0.20;;
57832;SDS011;43667;53.036;6.740;2022-07-23T08:10:21;0.75;;;0.17;;
57832;SDS011;43667;53.036;6.740;2022-07-23T08:12:48;1.40;;;0.20;;
57832;SDS011;43667;53.036;6.740;2022-07-23T08:15:17;0.65;;;0.10;;
57832;SDS011;43667;53.036;6.740;2022-07-23T08:17:45;1.92;;;0.20;;
57832;SDS011;43667;53.036;6.740;2022-07-23T08:20:12;2.40;;;0.28;;
57832;SDS011;43667;53.036;6.740;2022-07-23T08:22:45;2.60;;;0.38;;
57832;SDS011;43667;53.036;6.740;2022-07-23T08:25:16;1.30;;;0.35;;
57832;SDS011;43667;53.036;6.740;2022-07-23T08:27:45;0.90;;;0.20;;
57832;SDS011;43667;53.036;6.740;2022-07-23T08:30:11;0.60;;;0.15;;
57832;SDS011;43667;53.036;6.740;2022-07-23T08:32:53;1.13;;;0.20;;
57832;SDS011;43667;53.036;6.740;2022-07-23T08:37:56;0.93;;;0.20;;
57832;SDS011;43667;53.036;6.740;2022-07-23T08:40:23;2.10;;;0.43;;
57832;SDS011;43667;53.036;6.740;2022-07-23T08:42:51;2.38;;;0.30;;
57832;SDS011;43667;53.036;6.740;2022-07-23T08:45:18;2.72;;;0.20;;
57832;SDS011;43667;53.036;6.740;2022-07-23T08:47:48;1.05;;;0.15;;
57832;SDS011;43667;53.036;6.740;2022-07-23T08:50:15;3.15;;;0.30;;
57832;SDS011;43667;53.036;6.740;2022-07-23T08:52:41;2.67;;;0.25;;
57832;SDS011;43667;53.036;6.740;2022-07-23T08:55:07;1.13;;;0.20;;
57832;SDS011;43667;53.036;6.740;2022-07-23T08:57:33;1.55;;;0.10;;
57832;SDS011;43667;53.036;6.740;2022-07-23T08:59:59;1.98;;;0.17;;
57832;SDS011;43667;53.036;6.740;2022-07-23T09:02:24;0.88;;;0.17;;
57832;SDS011;43667;53.036;6.740;2022-07-23T09:04:50;1.45;;;0.20;;
57832;SDS011;43667;53.036;6.740;2022-07-23T09:07:15;5.68;;;0.40;;
57832;SDS011;43667;53.036;6.740;2022-07-23T09:09:41;62.28;;;4.60;;
57832;SDS011;43667;53.036;6.740;2022-07-23T09:12:08;4.18;;;0.20;;
57832;SDS011;43667;53.036;6.740;2022-07-23T09:14:42;3.78;;;0.47;;
57832;SDS011;43667;53.036;6.740;2022-07-23T09:17:13;0.98;;;0.17;;
57832;SDS011;43667;53.036;6.740;2022-07-23T09:19:41;1.88;;;0.35;;
57832;SDS011;43667;53.036;6.740;2022-07-23T09:22:24;0.88;;;0.20;;
57832;SDS011;43667;53.036;6.740;2022-07-23T09:25:04;0.95;;;0.10;;
57832;SDS011;43667;53.036;6.740;2022-07-23T09:27:51;12.38;;;0.95;;
57832;SDS011;43667;53.036;6.740;2022-07-23T09:30:25;2.60;;;0.20;;
57832;SDS011;43667;53.036;6.740;2022-07-23T09:33:09;2.22;;;0.50;;
57832;SDS011;43667;53.036;6.740;2022-07-23T09:35:53;1.05;;;0.10;;
57832;SDS011;43667;53.036;6.740;2022-07-23T09:38:21;2.70;;;0.30;;
57832;SDS011;43667;53.036;6.740;2022-07-23T09:41:07;1.65;;;0.28;;
57832;SDS011;43667;53.036;6.740;2022-07-23T09:43:34;3.40;;;0.40;;
57832;SDS011;43667;53.036;6.740;2022-07-23T09:48:49;1.83;;;0.70;;
57832;SDS011;43667;53.036;6.740;2022-07-23T09:51:20;0.70;;;0.10;;
57832;SDS011;43667;53.036;6.740;2022-07-23T09:54:01;0.80;;;0.20;;
57832;SDS011;43667;53.036;6.740;2022-07-23T09:56:27;3.28;;;0.20;;
57832;SDS011;43667;53.036;6.740;2022-07-23T09:58:53;1.42;;;0.25;;
57832;SDS011;43667;53.036;6.740;2022-07-23T10:01:40;1.05;;;0.10;;
57832;SDS011;43667;53.036;6.740;2022-07-23T10:04:05;2.20;;;0.20;;
57832;SDS011;43667;53.036;6.740;2022-07-23T10:06:32;1.55;;;0.20;;
57832;SDS011;43667;53.036;6.740;2022-07-23T10:08:59;4.57;;;0.43;;
57832;SDS011;43667;53.036;6.740;2022-07-23T10:11:26;0.95;;;0.30;;
57832;SDS011;43667;53.036;6.740;2022-07-23T10:13:54;2.55;;;0.28;;
57832;SDS011;43667;53.036;6.740;2022-07-23T10:16:20;3.13;;;0.70;;
57832;SDS011;43667;53.036;6.740;2022-07-23T10:18:47;4.05;;;0.30;;
57832;SDS011;43667;53.036;6.740;2022-07-23T10:21:16;1.88;;;0.28;;
57832;SDS011;43667;53.036;6.740;2022-07-23T10:23:58;1.38;;;0.20;;
57832;SDS011;43667;53.036;6.740;2022-07-23T10:26:35;1.40;;;0.30;;
57832;SDS011;43667;53.036;6.740;2022-07-23T10:39:15;1.70;;;0.40;;
57832;SDS011;43667;53.036;6.740;2022-07-23T10:41:51;0.93;;;0.20;;
57832;SDS011;43667;53.036;6.740;2022-07-23T10:44:18;1.08;;;0.30;;
57832;SDS011;43667;53.036;6.740;2022-07-23T10:46:54;3.83;;;0.60;;
57832;SDS011;43667;53.036;6.740;2022-07-23T10:49:39;2.38;;;0.40;;
57832;SDS011;43667;53.036;6.740;2022-07-23T10:57:16;1.38;;;0.30;;
57832;SDS011;43667;53.036;6.740;2022-07-23T11:02:37;2.08;;;0.50;;
57832;SDS011;43667;53.036;6.740;2022-07-23T11:05:12;0.93;;;0.38;;
57832;SDS011;43667;53.036;6.740;2022-07-23T11:10:33;1.60;;;0.32;;
57832;SDS011;43667;53.036;6.740;2022-07-23T11:16:06;0.95;;;0.35;;
57832;SDS011;43667;53.036;6.740;2022-07-23T11:32:03;5.03;;;0.43;;
57832;SDS011;43667;53.036;6.740;2022-07-23T11:37:08;1.38;;;0.32;;
57832;SDS011;43667;53.036;6.740;2022-07-23T11:39:36;3.28;;;0.43;;
57832;SDS011;43667;53.036;6.740;2022-07-23T11:42:03;2.55;;;0.55;;
57832;SDS011;43667;53.036;6.740;2022-07-23T11:44:34;1.67;;;0.40;;
57832;SDS011;43667;53.036;6.740;2022-07-23T11:47:05;2.42;;;0.47;;
57832;SDS011;43667;53.036;6.740;2022-07-23T11:49:32;4.53;;;0.40;;
57832;SDS011;43667;53.036;6.740;2022-07-23T11:52:02;1.48;;;0.40;;
57832;SDS011;43667;53.036;6.740;2022-07-23T11:54:29;1.80;;;0.50;;
57832;SDS011;43667;53.036;6.740;2022-07-23T11:56:59;2.05;;;0.43;;
57832;SDS011;43667;53.036;6.740;2022-07-23T11:59:31;1.45;;;0.43;;
57832;SDS011;43667;53.036;6.740;2022-07-23T12:02:04;3.35;;;0.30;;
57832;SDS011;43667;53.036;6.740;2022-07-23T12:04:40;1.23;;;0.43;;
57832;SDS011;43667;53.036;6.740;2022-07-23T12:09:52;3.63;;;0.55;;
57832;SDS011;43667;53.036;6.740;2022-07-23T12:12:18;1.75;;;0.50;;
57832;SDS011;43667;53.036;6.740;2022-07-23T12:14:57;3.35;;;0.57;;
57832;SDS011;43667;53.036;6.740;2022-07-23T12:17:30;3.53;;;0.43;;
57832;SDS011;43667;53.036;6.740;2022-07-23T12:19:59;1.35;;;0.85;;
57832;SDS011;43667;53.036;6.740;2022-07-23T12:22:26;1.95;;;0.80;;
57832;SDS011;43667;53.036;6.740;2022-07-23T12:25:13;4.47;;;0.68;;
57832;SDS011;43667;53.036;6.740;2022-07-23T12:27:40;2.03;;;0.60;;
57832;SDS011;43667;53.036;6.740;2022-07-23T12:30:23;4.70;;;0.65;;
57832;SDS011;43667;53.036;6.740;2022-07-23T12:32:51;1.52;;;0.40;;
57832;SDS011;43667;53.036;6.740;2022-07-23T12:35:19;2.13;;;0.60;;
57832;SDS011;43667;53.036;6.740;2022-07-23T12:37:46;4.00;;;0.50;;
57832;SDS011;43667;53.036;6.740;2022-07-23T12:42:59;1.48;;;0.45;;
57832;SDS011;43667;53.036;6.740;2022-07-23T12:45:27;1.83;;;0.50;;
57832;SDS011;43667;53.036;6.740;2022-07-23T12:48:06;2.90;;;0.55;;
57832;SDS011;43667;53.036;6.740;2022-07-23T12:50:36;5.53;;;0.80;;
57832;SDS011;43667;53.036;6.740;2022-07-23T12:53:17;3.03;;;0.90;;
57832;SDS011;43667;53.036;6.740;2022-07-23T12:56:09;3.88;;;0.40;;
57832;SDS011;43667;53.036;6.740;2022-07-23T13:01:08;3.70;;;1.15;;
57832;SDS011;43667;53.036;6.740;2022-07-23T13:09:06;2.28;;;0.80;;
57832;SDS011;43667;53.036;6.740;2022-07-23T13:11:34;3.05;;;0.50;;
57832;SDS011;43667;53.036;6.740;2022-07-23T13:14:00;2.78;;;0.50;;
57832;SDS011;43667;53.036;6.740;2022-07-23T13:16:27;1.40;;;0.50;;
57832;SDS011;43667;53.036;6.740;2022-07-23T13:18:53;1.63;;;0.50;;
57832;SDS011;43667;53.036;6.740;2022-07-23T13:21:18;3.88;;;0.98;;
57832;SDS011;43667;53.036;6.740;2022-07-23T13:23:44;1.23;;;0.60;;
57832;SDS011;43667;53.036;6.740;2022-07-23T13:26:09;2.13;;;0.45;;
57832;SDS011;43667;53.036;6.740;2022-07-23T13:28:35;2.42;;;0.50;;
57832;SDS011;43667;53.036;6.740;2022-07-23T13:31:01;3.20;;;0.57;;
57832;SDS011;43667;53.036;6.740;2022-07-23T13:33:27;1.95;;;0.47;;
57832;SDS011;43667;53.036;6.740;2022-07-23T13:35:52;4.90;;;0.70;;
57832;SDS011;43667;53.036;6.740;2022-07-23T13:38:19;3.88;;;0.60;;
57832;SDS011;43667;53.036;6.740;2022-07-23T13:40:47;2.63;;;0.63;;
57832;SDS011;43667;53.036;6.740;2022-07-23T13:43:15;11.80;;;5.18;;
57832;SDS011;43667;53.036;6.740;2022-07-23T13:45:42;11.98;;;6.70;;
57832;SDS011;43667;53.036;6.740;2022-07-23T13:48:09;2.05;;;0.73;;
57832;SDS011;43667;53.036;6.740;2022-07-23T13:50:36;3.17;;;0.60;;
57832;SDS011;43667;53.036;6.740;2022-07-23T13:53:06;4.95;;;2.35;;
57832;SDS011;43667;53.036;6.740;2022-07-23T13:55:43;5.80;;;1.67;;
57832;SDS011;43667;53.036;6.740;2022-07-23T13:58:09;2.05;;;0.60;;
57832;SDS011;43667;53.036;6.740;2022-07-23T14:00:36;2.15;;;0.50;;
57832;SDS011;43667;53.036;6.740;2022-07-23T14:03:04;3.67;;;0.88;;
57832;SDS011;43667;53.036;6.740;2022-07-23T14:05:30;1.20;;;0.50;;
57832;SDS011;43667;53.036;6.740;2022-07-23T14:07:56;3.90;;;0.50;;
57832;SDS011;43667;53.036;6.740;2022-07-23T14:10:23;2.50;;;0.50;;
57832;SDS011;43667;53.036;6.740;2022-07-23T14:12:50;10.88;;;5.45;;
57832;SDS011;43667;53.036;6.740;2022-07-23T14:15:17;3.80;;;0.95;;
57832;SDS011;43667;53.036;6.740;2022-07-23T14:17:44;4.10;;;1.67;;
57832;SDS011;43667;53.036;6.740;2022-07-23T14:20:10;2.55;;;0.70;;
57832;SDS011;43667;53.036;6.740;2022-07-23T14:22:38;4.90;;;2.30;;
57832;SDS011;43667;53.036;6.740;2022-07-23T14:25:04;2.70;;;1.20;;
57832;SDS011;43667;53.036;6.740;2022-07-23T14:27:32;2.40;;;0.85;;
57832;SDS011;43667;53.036;6.740;2022-07-23T14:29:58;3.03;;;0.85;;
57832;SDS011;43667;53.036;6.740;2022-07-23T14:32:24;3.50;;;1.30;;
57832;SDS011;43667;53.036;6.740;2022-07-23T14:34:50;1.38;;;0.52;;
57832;SDS011;43667;53.036;6.740;2022-07-23T14:37:15;2.92;;;1.02;;
57832;SDS011;43667;53.036;6.740;2022-07-23T14:39:42;6.80;;;1.30;;
57832;SDS011;43667;53.036;6.740;2022-07-23T14:42:08;2.13;;;0.88;;
57832;SDS011;43667;53.036;6.740;2022-07-23T14:44:35;2.05;;;0.60;;
57832;SDS011;43667;53.036;6.740;2022-07-23T14:47:02;1.75;;;0.75;;
57832;SDS011;43667;53.036;6.740;2022-07-23T14:49:29;1.75;;;0.50;;
57832;SDS011;43667;53.036;6.740;2022-07-23T14:51:55;2.60;;;0.70;;
57832;SDS011;43667;53.036;6.740;2022-07-23T14:54:21;1.58;;;0.50;;
57832;SDS011;43667;53.036;6.740;2022-07-23T14:56:47;2.40;;;0.73;;
57832;SDS011;43667;53.036;6.740;2022-07-23T14:59:13;2.28;;;0.60;;
57832;SDS011;43667;53.036;6.740;2022-07-23T15:01:38;2.00;;;0.63;;
57832;SDS011;43667;53.036;6.740;2022-07-23T15:04:05;2.10;;;0.40;;
57832;SDS011;43667;53.036;6.740;2022-07-23T15:06:31;0.98;;;0.50;;
57832;SDS011;43667;53.036;6.740;2022-07-23T15:08:57;1.10;;;0.40;;
57832;SDS011;43667;53.036;6.740;2022-07-23T15:11:25;1.25;;;0.40;;
57832;SDS011;43667;53.036;6.740;2022-07-23T15:13:51;1.40;;;0.40;;
57832;SDS011;43667;53.036;6.740;2022-07-23T15:16:17;3.13;;;0.65;;
57832;SDS011;43667;53.036;6.740;2022-07-23T15:18:43;3.03;;;0.70;;
57832;SDS011;43667;53.036;6.740;2022-07-23T15:21:10;2.40;;;0.60;;
57832;SDS011;43667;53.036;6.740;2022-07-23T15:23:35;3.03;;;1.85;;
57832;SDS011;43667;53.036;6.740;2022-07-23T15:26:04;3.97;;;0.70;;
57832;SDS011;43667;53.036;6.740;2022-07-23T15:28:30;2.53;;;0.70;;
57832;SDS011;43667;53.036;6.740;2022-07-23T15:30:56;8.85;;;7.40;;
57832;SDS011;43667;53.036;6.740;2022-07-23T15:33:21;5.47;;;2.65;;
57832;SDS011;43667;53.036;6.740;2022-07-23T15:35:47;3.55;;;1.27;;
57832;SDS011;43667;53.036;6.740;2022-07-23T15:38:13;3.05;;;2.80;;
57832;SDS011;43667;53.036;6.740;2022-07-23T15:40:40;2.17;;;1.30;;
57832;SDS011;43667;53.036;6.740;2022-07-23T15:43:05;2.00;;;1.42;;
57832;SDS011;43667;53.036;6.740;2022-07-23T15:45:31;2.00;;;0.50;;
57832;SDS011;43667;53.036;6.740;2022-07-23T15:47:57;4.05;;;2.00;;